createdAt,value
2023-01-29T00:02:05.580Z,19.20
2023-01-29T00:04:32.700Z,19.30
2023-01-29T00:06:59.981Z,19.30
2023-01-29T00:09:28.235Z,19.30
2023-01-29T00:11:55.071Z,19.30
2023-01-29T00:14:22.077Z,19.30
2023-01-29T00:16:49.287Z,19.30
2023-01-29T00:19:16.256Z,19.30
2023-01-29T00:21:43.481Z,19.30
2023-01-29T00:24:10.733Z,19.30
2023-01-29T00:26:39.237Z,19.30
2023-01-29T00:29:06.405Z,19.30
2023-01-29T00:31:33.285Z,19.30
2023-01-29T00:34:00.184Z,19.30
2023-01-29T00:36:27.689Z,19.30
2023-01-29T00:38:58.705Z,19.30
2023-01-29T00:41:49.581Z,19.30
2023-01-29T00:44:49.304Z,19.30
2023-01-29T00:47:30.787Z,19.30
2023-01-29T00:49:57.993Z,19.20
2023-01-29T00:52:25.172Z,19.20
2023-01-29T00:54:54.204Z,19.30
2023-01-29T00:57:21.475Z,19.30
2023-01-29T00:59:48.238Z,19.20
2023-01-29T01:02:33.654Z,19.30
2023-01-29T01:05:03.051Z,19.30
2023-01-29T01:07:30.956Z,19.20
2023-01-29T01:10:17.058Z,19.20
2023-01-29T01:12:44.274Z,19.20
2023-01-29T01:15:11.826Z,19.20
2023-01-29T01:17:38.676Z,19.20
2023-01-29T01:20:06.001Z,19.20
2023-01-29T01:22:32.745Z,19.10
2023-01-29T01:24:59.536Z,19.10
2023-01-29T01:27:26.380Z,19.10
2023-01-29T01:29:53.248Z,19.10
2023-01-29T01:32:20.002Z,19.10
2023-01-29T01:34:46.765Z,19.10
2023-01-29T01:37:13.675Z,19.10
2023-01-29T01:39:40.469Z,19.10
2023-01-29T01:42:12.900Z,19.00
2023-01-29T01:44:56.383Z,19.00
2023-01-29T01:47:41.692Z,19.00
2023-01-29T01:50:23.029Z,19.00
2023-01-29T01:52:55.417Z,19.00
2023-01-29T01:55:27.870Z,19.00
2023-01-29T01:58:02.030Z,19.00
2023-01-29T02:00:28.934Z,19.00
2023-01-29T02:03:14.268Z,19.00
2023-01-29T02:06:00.677Z,19.00
2023-01-29T02:08:56.576Z,19.00
2023-01-29T02:11:24.671Z,19.00
2023-01-29T02:13:53.513Z,19.00
2023-01-29T02:16:23.773Z,19.00
2023-01-29T02:18:51.190Z,18.90
2023-01-29T02:21:30.279Z,19.00
2023-01-29T02:24:40.655Z,19.00
2023-01-29T02:27:16.032Z,18.90
2023-01-29T02:29:55.356Z,18.90
2023-01-29T02:32:54.740Z,18.90
2023-01-29T02:35:37.335Z,18.90
2023-01-29T02:38:18.081Z,18.90
2023-01-29T02:41:06.466Z,18.80
2023-01-29T02:43:39.643Z,18.80
2023-01-29T02:46:24.181Z,18.80
2023-01-29T02:49:00.122Z,18.80
2023-01-29T02:51:38.609Z,18.80
2023-01-29T02:54:08.717Z,18.80
2023-01-29T02:56:44.346Z,18.80
2023-01-29T02:59:25.664Z,18.80
2023-01-29T03:01:58.410Z,18.80
2023-01-29T03:04:31.209Z,18.80
2023-01-29T03:07:10.580Z,18.80
2023-01-29T03:09:42.602Z,18.80
2023-01-29T03:12:35.033Z,18.80
2023-01-29T03:15:14.120Z,18.80
2023-01-29T03:17:59.815Z,18.80
2023-01-29T03:20:35.357Z,18.80
2023-01-29T03:23:08.862Z,18.80
2023-01-29T03:25:57.135Z,18.80
2023-01-29T03:28:43.394Z,18.80
2023-01-29T03:31:31.486Z,18.80
2023-01-29T03:34:08.352Z,18.80
2023-01-29T03:36:45.301Z,18.70
2023-01-29T03:39:15.347Z,18.80
2023-01-29T03:42:00.737Z,18.80
2023-01-29T03:44:37.091Z,18.80
2023-01-29T03:47:13.677Z,18.80
2023-01-29T03:50:02.002Z,18.70
2023-01-29T03:52:37.360Z,18.70
2023-01-29T03:55:15.282Z,18.70
2023-01-29T03:58:04.886Z,18.70
2023-01-29T04:00:49.420Z,18.70
2023-01-29T04:03:32.930Z,18.70
2023-01-29T04:06:20.091Z,18.70
2023-01-29T04:09:12.361Z,18.80
2023-01-29T04:11:45.026Z,18.80
2023-01-29T04:14:13.339Z,18.90
2023-01-29T04:16:44.686Z,18.90
2023-01-29T04:19:12.301Z,19.00
2023-01-29T04:21:39.606Z,19.00
2023-01-29T04:24:08.192Z,19.00
2023-01-29T04:26:58.287Z,19.10
2023-01-29T04:29:51.913Z,19.10
2023-01-29T04:32:32.519Z,19.10
2023-01-29T04:35:17.181Z,19.10
2023-01-29T04:37:56.841Z,19.10
2023-01-29T04:40:44.349Z,19.00
2023-01-29T04:43:30.390Z,19.00
2023-01-29T04:46:05.947Z,19.00
2023-01-29T04:48:48.390Z,18.90
2023-01-29T04:51:47.327Z,19.00
2023-01-29T04:54:14.057Z,19.00
2023-01-29T04:57:16.016Z,19.00
2023-01-29T04:59:47.831Z,19.10
2023-01-29T05:02:14.773Z,19.10
2023-01-29T05:04:43.359Z,19.10
2023-01-29T05:07:14.306Z,19.20
2023-01-29T05:09:44.995Z,19.20
2023-01-29T05:12:14.480Z,19.20
2023-01-29T05:14:44.675Z,19.30
2023-01-29T05:17:19.845Z,19.30
2023-01-29T05:19:47.456Z,19.20
2023-01-29T05:22:17.778Z,19.20
2023-01-29T05:24:44.876Z,19.20
2023-01-29T05:27:41.340Z,19.20
2023-01-29T05:30:09.824Z,19.20
2023-01-29T05:32:36.608Z,19.20
2023-01-29T05:35:03.507Z,19.30
2023-01-29T05:37:30.493Z,19.30
2023-01-29T05:39:57.282Z,19.30
2023-01-29T05:42:24.223Z,19.30
2023-01-29T05:44:51.067Z,19.30
2023-01-29T05:47:21.748Z,19.40
2023-01-29T05:49:48.537Z,19.40
2023-01-29T05:52:15.279Z,19.40
2023-01-29T05:54:41.998Z,19.50
2023-01-29T05:57:08.768Z,19.50
2023-01-29T05:59:35.614Z,19.50
2023-01-29T06:02:02.509Z,19.50
2023-01-29T06:04:29.344Z,19.50
2023-01-29T06:06:56.119Z,19.40
2023-01-29T06:09:22.927Z,19.40
2023-01-29T06:11:49.748Z,19.40
2023-01-29T06:14:16.837Z,19.40
2023-01-29T06:16:43.623Z,19.40
2023-01-29T06:19:10.427Z,19.40
2023-01-29T06:21:37.201Z,19.40
2023-01-29T06:24:04.386Z,19.40
2023-01-29T06:26:31.193Z,19.50
2023-01-29T06:28:57.944Z,19.50
2023-01-29T06:31:37.706Z,19.50
2023-01-29T06:34:06.322Z,19.60
2023-01-29T06:36:33.225Z,19.60
2023-01-29T06:39:00.005Z,19.60
2023-01-29T06:41:26.856Z,19.70
2023-01-29T06:43:53.609Z,19.60
2023-01-29T06:46:20.471Z,19.60
2023-01-29T06:48:47.266Z,19.60
2023-01-29T06:51:14.054Z,19.50
2023-01-29T06:53:41.747Z,19.40
2023-01-29T06:56:09.153Z,19.30
2023-01-29T06:58:39.249Z,19.30
2023-01-29T07:01:19.706Z,19.30
2023-01-29T07:03:52.166Z,19.20
2023-01-29T07:06:19.784Z,19.20
2023-01-29T07:08:46.889Z,19.20
2023-01-29T07:11:13.719Z,19.20
2023-01-29T07:13:40.551Z,19.30
2023-01-29T07:16:07.559Z,19.30
2023-01-29T07:18:34.436Z,19.30
2023-01-29T07:21:05.763Z,19.30
2023-01-29T07:23:33.159Z,19.30
2023-01-29T07:26:06.516Z,19.30
2023-01-29T07:28:40.069Z,19.30
2023-01-29T07:31:08.073Z,19.20
2023-01-29T07:33:35.106Z,19.20
2023-01-29T07:36:02.013Z,19.10
2023-01-29T07:38:29.061Z,19.10
2023-01-29T07:40:55.973Z,19.10
2023-01-29T07:43:24.781Z,19.00
2023-01-29T07:45:52.132Z,19.00
2023-01-29T07:48:19.495Z,19.00
2023-01-29T07:50:54.019Z,19.00
2023-01-29T07:53:20.841Z,19.00
2023-01-29T07:55:47.621Z,19.10
2023-01-29T07:58:14.384Z,19.10
2023-01-29T08:00:41.115Z,19.10
2023-01-29T08:03:11.701Z,19.20
2023-01-29T08:05:38.697Z,19.20
2023-01-29T08:08:07.614Z,19.20
2023-01-29T08:10:39.240Z,19.20
2023-01-29T08:13:06.679Z,19.20
2023-01-29T08:15:33.938Z,19.20
2023-01-29T08:18:03.887Z,19.20
2023-01-29T08:20:30.845Z,19.20
2023-01-29T08:23:06.341Z,19.10
2023-01-29T08:25:34.507Z,19.10
2023-01-29T08:28:01.361Z,19.00
2023-01-29T08:30:31.307Z,19.00
2023-01-29T08:32:58.358Z,18.90
2023-01-29T08:35:25.961Z,18.90
2023-01-29T08:38:01.308Z,18.90
2023-01-29T08:40:31.614Z,18.90
2023-01-29T08:43:02.078Z,18.80
2023-01-29T08:45:30.363Z,18.80
2023-01-29T08:47:57.450Z,18.80
2023-01-29T08:50:24.496Z,18.80
2023-01-29T08:52:51.935Z,18.80
2023-01-29T08:55:19.097Z,18.80
2023-01-29T08:57:46.030Z,18.80
2023-01-29T09:00:13.464Z,18.80
2023-01-29T09:02:40.315Z,18.80
2023-01-29T09:05:07.771Z,18.80
2023-01-29T09:07:37.190Z,18.80
2023-01-29T09:10:04.219Z,18.80
2023-01-29T09:12:31.111Z,18.80
2023-01-29T09:14:57.971Z,18.80
2023-01-29T09:17:33.974Z,18.80
2023-01-29T09:20:00.766Z,18.80
2023-01-29T09:22:28.059Z,18.80
2023-01-29T09:24:54.819Z,18.80
2023-01-29T09:27:21.630Z,18.80
2023-01-29T09:29:48.471Z,18.80
2023-01-29T09:32:16.854Z,18.80
2023-01-29T09:34:46.570Z,18.80
2023-01-29T09:37:13.423Z,18.80
2023-01-29T09:39:40.176Z,18.80
2023-01-29T09:42:19.132Z,18.80
2023-01-29T09:45:11.010Z,18.70
2023-01-29T09:47:37.947Z,18.70
2023-01-29T09:50:19.047Z,18.70
2023-01-29T09:53:01.289Z,18.60
2023-01-29T09:55:45.883Z,18.50
2023-01-29T09:58:31.956Z,18.40
2023-01-29T10:01:23.961Z,18.40
2023-01-29T10:04:28.516Z,18.30
2023-01-29T10:07:16.242Z,18.30
2023-01-29T10:10:20.095Z,18.30
2023-01-29T10:13:19.184Z,18.20
2023-01-29T10:15:54.756Z,18.20
2023-01-29T10:19:00.939Z,18.10
2023-01-29T10:21:56.909Z,18.10
2023-01-29T10:24:38.447Z,18.00
2023-01-29T10:27:16.925Z,18.00
2023-01-29T10:29:45.418Z,18.00
2023-01-29T10:32:17.668Z,18.00
2023-01-29T10:34:57.345Z,18.00
2023-01-29T10:37:30.951Z,18.00
2023-01-29T10:40:00.135Z,18.10
2023-01-29T10:42:33.423Z,18.10
2023-01-29T10:45:31.627Z,18.20
2023-01-29T10:48:27.720Z,18.30
2023-01-29T10:51:19.569Z,18.30
2023-01-29T10:54:05.083Z,18.40
2023-01-29T10:56:48.643Z,18.40
2023-01-29T10:59:18.447Z,18.50
2023-01-29T11:01:45.330Z,18.50
2023-01-29T11:04:13.095Z,18.60
2023-01-29T11:06:39.932Z,18.60
2023-01-29T11:09:36.770Z,18.70
2023-01-29T11:12:14.746Z,18.80
2023-01-29T11:14:46.673Z,18.80
2023-01-29T11:17:22.003Z,18.90
2023-01-29T11:19:53.225Z,18.90
2023-01-29T11:22:23.702Z,18.90
2023-01-29T11:25:19.971Z,18.90
2023-01-29T11:27:49.979Z,19.00
2023-01-29T11:30:40.129Z,19.00
2023-01-29T11:33:08.187Z,19.00
2023-01-29T11:35:36.537Z,19.00
2023-01-29T11:38:09.527Z,19.10
2023-01-29T11:40:41.698Z,19.10
2023-01-29T11:43:26.850Z,19.10
2023-01-29T11:45:56.733Z,19.20
2023-01-29T11:48:40.947Z,19.20
2023-01-29T11:51:10.158Z,19.20
2023-01-29T11:53:45.993Z,19.30
2023-01-29T11:56:33.919Z,19.30
2023-01-29T11:59:04.464Z,19.30
2023-01-29T12:01:38.989Z,19.40
2023-01-29T12:04:22.762Z,19.40
2023-01-29T12:06:52.988Z,19.40
2023-01-29T12:09:23.542Z,19.50
2023-01-29T12:11:51.843Z,19.50
2023-01-29T12:14:38.693Z,19.50
2023-01-29T12:17:08.534Z,19.50
2023-01-29T12:19:54.716Z,19.60
2023-01-29T12:22:27.832Z,19.50
2023-01-29T12:25:08.234Z,19.60
2023-01-29T12:27:46.786Z,19.60
2023-01-29T12:30:13.678Z,19.60
2023-01-29T12:33:17.979Z,19.60
2023-01-29T12:35:50.084Z,19.60
2023-01-29T12:38:22.512Z,19.60
2023-01-29T12:40:58.784Z,19.60
2023-01-29T12:43:43.430Z,19.60
2023-01-29T12:46:21.614Z,19.60
2023-01-29T12:48:50.474Z,19.70
2023-01-29T12:51:23.107Z,19.70
2023-01-29T12:54:14.747Z,19.70
2023-01-29T12:56:48.473Z,19.70
2023-01-29T12:59:24.015Z,19.70
2023-01-29T13:01:55.039Z,19.70
2023-01-29T13:04:40.163Z,19.80
2023-01-29T13:07:31.911Z,19.80
2023-01-29T13:10:08.473Z,19.80
2023-01-29T13:12:39.822Z,19.80
2023-01-29T13:15:18.155Z,19.90
2023-01-29T13:17:50.986Z,19.90
2023-01-29T13:20:20.086Z,19.90
2023-01-29T13:22:48.535Z,19.90
2023-01-29T13:25:17.953Z,19.90
2023-01-29T13:27:47.847Z,20.00
2023-01-29T13:30:28.874Z,20.00
2023-01-29T13:33:09.144Z,20.00
2023-01-29T13:35:40.474Z,20.00
2023-01-29T13:38:23.668Z,20.10
2023-01-29T13:40:51.155Z,20.10
2023-01-29T13:43:23.429Z,20.10
2023-01-29T13:45:52.717Z,20.20
2023-01-29T13:48:32.520Z,20.20
2023-01-29T13:51:03.812Z,20.30
2023-01-29T13:53:40.356Z,20.30
2023-01-29T13:56:35.182Z,20.30
2023-01-29T13:59:05.298Z,20.40
2023-01-29T14:02:04.069Z,20.40
2023-01-29T14:04:32.433Z,20.40
2023-01-29T14:07:00.275Z,20.40
2023-01-29T14:09:39.069Z,20.40
2023-01-29T14:12:25.811Z,20.30
2023-01-29T14:14:56.553Z,20.30
2023-01-29T14:17:26.200Z,20.20
2023-01-29T14:19:59.292Z,20.20
2023-01-29T14:22:29.051Z,20.10
2023-01-29T14:25:00.368Z,20.10
2023-01-29T14:27:27.589Z,20.00
2023-01-29T14:30:09.685Z,20.00
2023-01-29T14:32:39.856Z,20.00
2023-01-29T14:35:22.899Z,20.00
2023-01-29T14:37:52.558Z,20.00
2023-01-29T14:40:19.289Z,20.00
2023-01-29T14:43:09.604Z,20.00
2023-01-29T14:45:41.906Z,20.00
2023-01-29T14:48:11.852Z,20.00
2023-01-29T14:50:50.529Z,20.10
2023-01-29T14:53:45.185Z,20.10
2023-01-29T14:56:22.046Z,20.10
2023-01-29T14:58:54.328Z,20.20
2023-01-29T15:01:27.028Z,20.20
2023-01-29T15:04:07.490Z,20.20
2023-01-29T15:06:39.231Z,20.20
2023-01-29T15:09:14.972Z,20.20
2023-01-29T15:12:18.472Z,20.20
2023-01-29T15:15:12.821Z,20.20
2023-01-29T15:17:58.171Z,20.20
2023-01-29T15:20:33.871Z,20.10
2023-01-29T15:23:03.462Z,20.10
2023-01-29T15:25:47.624Z,20.00
2023-01-29T15:28:15.596Z,20.00
2023-01-29T15:30:43.643Z,19.90
2023-01-29T15:33:17.192Z,19.90
2023-01-29T15:35:44.109Z,19.80
2023-01-29T15:38:22.500Z,19.80
2023-01-29T15:40:58.908Z,19.80
2023-01-29T15:43:26.948Z,19.80
2023-01-29T15:46:03.466Z,19.80
2023-01-29T15:48:35.338Z,19.80
2023-01-29T15:51:05.914Z,19.80
2023-01-29T15:53:44.047Z,19.90
2023-01-29T15:56:12.804Z,19.90
2023-01-29T15:58:40.297Z,19.90
2023-01-29T16:01:07.298Z,20.00
2023-01-29T16:03:36.020Z,20.00
2023-01-29T16:06:03.292Z,20.00
2023-01-29T16:08:30.586Z,20.00
2023-01-29T16:11:00.634Z,20.00
2023-01-29T16:13:36.173Z,20.10
2023-01-29T16:16:08.348Z,20.10
2023-01-29T16:18:41.062Z,20.10
2023-01-29T16:21:34.841Z,20.10
2023-01-29T16:24:11.822Z,20.10
2023-01-29T16:26:43.975Z,20.20
2023-01-29T16:29:23.368Z,20.20
2023-01-29T16:32:00.415Z,20.20
2023-01-29T16:34:36.135Z,20.10
2023-01-29T16:37:06.603Z,20.10
2023-01-29T16:39:39.359Z,20.10
2023-01-29T16:42:21.143Z,20.00
2023-01-29T16:45:02.287Z,19.90
2023-01-29T16:47:34.090Z,19.90
2023-01-29T16:50:17.749Z,19.80
2023-01-29T16:53:01.183Z,19.80
2023-01-29T16:55:35.318Z,19.80
2023-01-29T16:58:10.627Z,19.80
2023-01-29T17:00:37.663Z,19.80
2023-01-29T17:03:07.048Z,19.80
2023-01-29T17:05:37.230Z,19.80
2023-01-29T17:08:05.946Z,19.80
2023-01-29T17:10:33.238Z,19.80
2023-01-29T17:13:06.822Z,19.80
2023-01-29T17:15:33.679Z,19.80
2023-01-29T17:18:00.621Z,19.80
2023-01-29T17:20:27.977Z,19.80
2023-01-29T17:22:54.890Z,19.80
2023-01-29T17:25:22.117Z,19.80
2023-01-29T17:27:51.785Z,19.80
2023-01-29T17:30:22.339Z,19.80
2023-01-29T17:32:49.877Z,19.80
2023-01-29T17:35:18.054Z,19.80
2023-01-29T17:37:45.535Z,19.90
2023-01-29T17:40:37.003Z,19.90
2023-01-29T17:43:04.435Z,19.90
2023-01-29T17:45:31.576Z,19.90
2023-01-29T17:47:58.631Z,20.00
2023-01-29T17:50:27.615Z,20.00
2023-01-29T17:52:54.647Z,20.00
2023-01-29T17:55:22.232Z,20.00
2023-01-29T17:57:49.256Z,20.10
2023-01-29T18:00:22.541Z,20.10
2023-01-29T18:02:49.941Z,20.20
2023-01-29T18:05:17.986Z,20.20
2023-01-29T18:07:46.877Z,20.20
2023-01-29T18:10:19.033Z,20.20
2023-01-29T18:12:46.016Z,20.20
2023-01-29T18:15:13.750Z,20.10
2023-01-29T18:17:41.422Z,20.10
2023-01-29T18:20:21.394Z,20.10
2023-01-29T18:22:48.733Z,20.10
2023-01-29T18:25:16.362Z,20.00
2023-01-29T18:27:43.724Z,20.00
2023-01-29T18:30:12.042Z,20.00
2023-01-29T18:32:39.543Z,20.00
2023-01-29T18:35:08.034Z,19.90
2023-01-29T18:37:36.229Z,19.90
2023-01-29T18:40:03.773Z,19.80
2023-01-29T18:42:35.850Z,19.80
2023-01-29T18:45:03.790Z,19.80
2023-01-29T18:47:31.753Z,19.80
2023-01-29T18:49:58.847Z,19.80
2023-01-29T18:52:26.238Z,19.80
2023-01-29T18:54:53.673Z,19.80
2023-01-29T18:58:26.075Z,19.80
2023-01-29T19:00:08.026Z,19.80
2023-01-29T19:02:36.256Z,19.80
2023-01-29T19:05:03.532Z,19.90
2023-01-29T19:07:30.865Z,19.90
2023-01-29T19:09:57.670Z,19.90
2023-01-29T19:12:24.604Z,19.90
2023-01-29T19:14:51.429Z,20.00
2023-01-29T19:17:18.225Z,20.00
2023-01-29T19:19:46.137Z,20.00
2023-01-29T19:22:12.992Z,20.00
2023-01-29T19:24:41.027Z,20.10
2023-01-29T19:27:08.159Z,20.10
2023-01-29T19:29:35.545Z,20.10
2023-01-29T19:32:02.322Z,20.10
2023-01-29T19:34:29.306Z,20.10
2023-01-29T19:36:56.350Z,20.10
2023-01-29T19:39:23.658Z,20.10
2023-01-29T19:41:51.199Z,20.00
2023-01-29T19:44:18.397Z,20.00
2023-01-29T19:46:46.749Z,20.00
2023-01-29T19:49:13.521Z,20.00
2023-01-29T19:51:41.381Z,20.00
2023-01-29T19:54:09.322Z,20.00
2023-01-29T19:56:36.628Z,19.90
2023-01-29T19:59:04.995Z,19.90
2023-01-29T20:01:31.995Z,19.90
2023-01-29T20:03:58.905Z,19.90
2023-01-29T20:06:28.311Z,19.90
2023-01-29T20:08:55.220Z,19.90
2023-01-29T20:11:24.810Z,19.90
2023-01-29T20:13:53.539Z,19.90
2023-01-29T20:16:21.886Z,19.90
2023-01-29T20:18:49.377Z,19.90
2023-01-29T20:21:20.679Z,19.90
2023-01-29T20:23:52.319Z,19.80
2023-01-29T20:26:19.995Z,19.80
2023-01-29T20:28:48.292Z,19.80
2023-01-29T20:31:16.080Z,19.80
2023-01-29T20:33:42.952Z,19.80
2023-01-29T20:36:12.151Z,19.80
2023-01-29T20:38:39.250Z,19.80
2023-01-29T20:41:15.184Z,19.80
2023-01-29T20:43:42.840Z,19.70
2023-01-29T20:46:10.894Z,19.70
2023-01-29T20:48:38.090Z,19.70
2023-01-29T20:51:12.992Z,19.60
2023-01-29T20:53:41.062Z,19.60
2023-01-29T20:56:08.993Z,19.60
2023-01-29T20:58:40.809Z,19.60
2023-01-29T21:01:12.076Z,19.50
2023-01-29T21:03:39.576Z,19.50
2023-01-29T21:06:07.578Z,19.50
2023-01-29T21:08:35.851Z,19.50
2023-01-29T21:11:03.891Z,19.40
2023-01-29T21:13:31.201Z,19.40
2023-01-29T21:15:58.273Z,19.40
2023-01-29T21:18:26.313Z,19.30
2023-01-29T21:20:53.634Z,19.30
2023-01-29T21:23:21.270Z,19.30
2023-01-29T21:25:48.363Z,19.20
2023-01-29T21:28:15.759Z,19.20
2023-01-29T21:30:43.755Z,19.20
2023-01-29T21:33:11.603Z,19.10
2023-01-29T21:35:38.450Z,19.10
2023-01-29T21:38:05.827Z,19.10
2023-01-29T21:40:33.297Z,19.00
2023-01-29T21:43:13.065Z,19.00
2023-01-29T21:45:40.589Z,19.00
2023-01-29T21:48:07.798Z,19.00
2023-01-29T21:50:34.638Z,19.00
2023-01-29T21:53:01.711Z,19.00
2023-01-29T21:55:29.060Z,19.00
2023-01-29T21:57:55.855Z,19.00
2023-01-29T22:00:23.207Z,19.00
2023-01-29T22:02:51.170Z,19.10
2023-01-29T22:05:19.946Z,19.10
2023-01-29T22:07:48.549Z,19.10
2023-01-29T22:10:17.361Z,19.10
2023-01-29T22:12:44.746Z,19.10
2023-01-29T22:15:12.391Z,19.10
2023-01-29T22:17:41.299Z,19.10
2023-01-29T22:20:13.132Z,19.20
2023-01-29T22:22:40.089Z,19.10
2023-01-29T22:25:07.248Z,19.20
2023-01-29T22:27:34.488Z,19.10
2023-01-29T22:30:01.251Z,19.20
2023-01-29T22:32:28.927Z,19.20
2023-01-29T22:34:55.719Z,19.20
2023-01-29T22:37:22.506Z,19.20
2023-01-29T22:39:49.301Z,19.20
2023-01-29T22:42:18.114Z,19.20
2023-01-29T22:44:44.860Z,19.20
2023-01-29T22:47:12.276Z,19.20
2023-01-29T22:49:39.020Z,19.20
2023-01-29T22:52:11.819Z,19.20
2023-01-29T22:54:40.780Z,19.30
2023-01-29T22:57:11.099Z,19.20
2023-01-29T22:59:38.559Z,19.30
2023-01-29T23:02:06.422Z,19.20
2023-01-29T23:04:33.689Z,19.20
2023-01-29T23:07:00.510Z,19.20
2023-01-29T23:09:27.462Z,19.20
2023-01-29T23:11:54.219Z,19.10
2023-01-29T23:14:21.113Z,19.10
2023-01-29T23:16:47.873Z,19.10
2023-01-29T23:19:14.668Z,19.10
2023-01-29T23:21:41.428Z,19.10
2023-01-29T23:24:08.967Z,19.10
2023-01-29T23:26:54.726Z,19.10
2023-01-29T23:29:21.617Z,19.10
2023-01-29T23:31:48.603Z,19.10
2023-01-29T23:34:15.673Z,19.10
2023-01-29T23:36:43.129Z,19.10
2023-01-29T23:39:10.077Z,19.10
2023-01-29T23:41:36.837Z,19.10
2023-01-29T23:44:04.708Z,19.10
2023-01-29T23:46:32.005Z,19.10
2023-01-29T23:48:58.909Z,19.10
2023-01-29T23:51:25.938Z,19.10
2023-01-29T23:53:52.992Z,19.10
2023-01-29T23:56:20.163Z,19.10
2023-01-29T23:58:47.007Z,19.10
